Time;durP1;ratioP1;P1;durP2;ratioP2;P2;SDS_P1;SDS_P2;PMS_P1;PMS_P2;Temp;Humidity;BMP_temperature;BMP_pressure;BME280_temperature;BME280_humidity;BME280_pressure;Samples;Min_cycle;Max_cycle;Signal;HPM_P1;HPM_P2
2021/09/15 00:00:00;;;;;;;14.60;8.27;;;19.80;97.70;;;;;;5052872;28;20024;-75
2021/09/15 00:02:26;;;;;;;15.85;7.75;;;19.80;97.70;;;;;;5053482;28;20111;-75
2021/09/15 00:04:51;;;;;;;13.85;7.85;;;19.80;97.70;;;;;;5052516;28;20025;-75
2021/09/15 00:07:17;;;;;;;10.18;6.20;;;19.80;97.70;;;;;;5053305;28;20033;-75
2021/09/15 00:09:42;;;;;;;13.30;7.97;;;19.80;97.70;;;;;;5051455;28;20021;-76
2021/09/15 00:12:08;;;;;;;13.07;8.23;;;19.80;97.70;;;;;;5052153;28;20033;-75
2021/09/15 00:14:34;;;;;;;11.70;7.30;;;19.80;97.70;;;;;;5051926;28;20024;-75
2021/09/15 00:17:00;;;;;;;14.75;8.25;;;19.80;97.70;;;;;;5052536;28;20043;-73
2021/09/15 00:19:25;;;;;;;14.70;8.27;;;19.80;97.70;;;;;;5053199;28;20108;-75
2021/09/15 00:21:51;;;;;;;12.45;7.18;;;19.80;97.70;;;;;;5066031;28;20431;-74
2021/09/15 00:24:17;;;;;;;14.38;8.30;;;19.80;97.70;;;;;;5071645;28;20031;-75
2021/09/15 00:26:42;;;;;;;12.35;7.28;;;19.80;97.70;;;;;;5071236;28;20415;-75
2021/09/15 00:29:08;;;;;;;12.52;7.75;;;19.80;97.70;;;;;;5072853;28;20119;-75
2021/09/15 00:31:33;;;;;;;11.52;7.00;;;19.80;97.70;;;;;;5072830;28;20070;-73
2021/09/15 00:33:59;;;;;;;11.65;7.05;;;19.80;97.70;;;;;;5072164;28;20480;-73
2021/09/15 00:36:25;;;;;;;10.52;6.93;;;19.80;97.80;;;;;;5071405;28;20025;-73
2021/09/15 00:38:50;;;;;;;10.23;6.50;;;19.80;97.80;;;;;;5072084;28;20082;-74
2021/09/15 00:41:16;;;;;;;11.63;6.95;;;19.80;97.80;;;;;;5072314;28;20377;-73
2021/09/15 00:44:04;;;;;;;10.50;6.90;;;19.70;97.80;;;;;;5072011;28;20035;-74
2021/09/15 00:46:30;;;;;;;11.35;6.47;;;19.70;97.80;;;;;;5072561;28;20029;-74
2021/09/15 00:48:55;;;;;;;10.00;7.00;;;19.70;97.80;;;;;;5069780;28;20036;-75
2021/09/15 00:51:21;;;;;;;10.32;7.22;;;19.70;97.80;;;;;;5072503;28;20052;-74
2021/09/15 00:53:47;;;;;;;10.38;6.90;;;19.70;98.10;;;;;;5071835;28;20035;-75
2021/09/15 00:56:13;;;;;;;10.13;6.13;;;19.70;97.90;;;;;;5072370;28;20032;-75
2021/09/15 00:58:39;;;;;;;9.43;6.32;;;19.70;97.90;;;;;;5072384;28;20020;-74
2021/09/15 01:01:04;;;;;;;9.93;6.22;;;19.70;97.90;;;;;;5071412;28;20025;-74
2021/09/15 01:03:31;;;;;;;13.25;6.88;;;19.70;97.90;;;;;;5070894;28;20445;-74
2021/09/15 01:05:56;;;;;;;10.80;6.57;;;19.70;98.00;;;;;;5071585;28;20021;-74
2021/09/15 01:08:24;;;;;;;10.88;6.50;;;19.60;98.00;;;;;;5072134;28;20393;-74
2021/09/15 01:10:51;;;;;;;11.27;6.15;;;19.50;98.00;;;;;;5070207;28;20447;-74
2021/09/15 01:13:17;;;;;;;11.35;6.60;;;19.50;98.10;;;;;;5072097;28;20491;-74
2021/09/15 01:15:43;;;;;;;11.13;6.47;;;19.50;98.10;;;;;;5071824;28;20029;-74
2021/09/15 01:18:13;;;;;;;10.55;6.53;;;19.50;98.20;;;;;;5070030;28;20048;-74
2021/09/15 01:20:39;;;;;;;9.65;6.07;;;19.50;98.20;;;;;;5072034;28;20453;-74
2021/09/15 01:23:05;;;;;;;10.48;6.25;;;19.50;98.20;;;;;;5070086;28;20024;-74
2021/09/15 01:25:30;;;;;;;14.65;6.75;;;19.50;98.20;;;;;;5072065;28;20159;-74
2021/09/15 01:27:56;;;;;;;9.57;5.78;;;19.50;98.20;;;;;;5070781;28;20076;-75
2021/09/15 01:30:22;;;;;;;8.27;5.40;;;19.50;98.10;;;;;;5070637;28;20028;-75
2021/09/15 01:32:47;;;;;;;10.57;6.50;;;19.50;98.10;;;;;;5069999;28;20067;-75
2021/09/15 01:35:13;;;;;;;11.95;5.50;;;19.40;98.10;;;;;;5070197;28;20055;-75
2021/09/15 01:37:39;;;;;;;9.10;5.68;;;19.40;98.20;;;;;;5071937;28;20033;-75
2021/09/15 01:40:05;;;;;;;12.85;6.30;;;19.40;98.20;;;;;;5070958;28;20027;-74
2021/09/15 01:42:31;;;;;;;10.38;6.10;;;19.40;98.20;;;;;;5070182;28;20025;-74
2021/09/15 01:44:57;;;;;;;12.57;5.82;;;19.40;98.30;;;;;;5069903;28;20077;-74
2021/09/15 01:47:22;;;;;;;10.77;6.30;;;19.30;98.30;;;;;;5070378;28;20130;-74
2021/09/15 01:49:49;;;;;;;11.95;6.63;;;19.30;98.30;;;;;;5071152;28;20027;-75
2021/09/15 01:52:16;;;;;;;12.50;6.63;;;19.30;98.30;;;;;;5070399;28;20460;-74
2021/09/15 01:54:42;;;;;;;10.45;6.00;;;19.30;98.30;;;;;;5071610;28;20024;-74
2021/09/15 01:57:08;;;;;;;10.98;6.40;;;19.30;98.40;;;;;;5071115;28;20086;-74
2021/09/15 01:59:33;;;;;;;10.30;6.43;;;19.20;98.40;;;;;;5072780;28;20025;-74
2021/09/15 02:01:59;;;;;;;11.13;6.45;;;19.20;98.40;;;;;;5073690;28;20031;-74
2021/09/15 02:04:25;;;;;;;9.32;6.15;;;19.20;98.40;;;;;;5075606;28;20036;-74
2021/09/15 02:06:51;;;;;;;10.35;6.40;;;19.20;98.40;;;;;;5074918;28;20028;-75
2021/09/15 02:09:16;;;;;;;11.10;7.03;;;19.20;98.50;;;;;;5075328;28;20028;-74
2021/09/15 02:11:42;;;;;;;10.27;6.40;;;19.20;98.40;;;;;;5075620;28;20420;-74
2021/09/15 02:14:08;;;;;;;9.25;6.28;;;19.20;98.40;;;;;;5073691;28;20028;-74
2021/09/15 02:16:34;;;;;;;9.50;5.28;;;19.20;98.40;;;;;;5075092;28;20376;-74
2021/09/15 02:19:00;;;;;;;10.77;5.82;;;19.20;98.40;;;;;;5074829;28;20040;-74
2021/09/15 02:21:25;;;;;;;11.40;6.28;;;19.20;98.40;;;;;;5064585;28;20036;-74
2021/09/15 02:23:51;;;;;;;9.43;6.38;;;19.20;98.40;;;;;;5053401;28;20426;-74
2021/09/15 02:26:17;;;;;;;10.43;6.90;;;19.20;98.40;;;;;;5054908;28;20104;-74
2021/09/15 02:28:43;;;;;;;11.18;6.50;;;19.20;98.30;;;;;;5054695;28;20496;-74
2021/09/15 02:31:10;;;;;;;11.82;6.68;;;19.20;98.30;;;;;;5054491;28;20406;-74
2021/09/15 02:33:35;;;;;;;11.38;6.47;;;19.20;98.40;;;;;;5055306;28;20032;-74
2021/09/15 02:36:02;;;;;;;11.35;6.60;;;19.20;98.40;;;;;;5054409;28;20017;-74
2021/09/15 02:38:28;;;;;;;10.63;6.18;;;19.20;98.40;;;;;;5055010;28;20037;-74
2021/09/15 02:40:53;;;;;;;9.93;6.88;;;19.20;98.40;;;;;;5054372;28;20025;-75
2021/09/15 02:43:19;;;;;;;9.15;6.03;;;19.20;98.40;;;;;;5055259;28;20025;-75
2021/09/15 02:45:45;;;;;;;9.13;5.82;;;19.20;98.40;;;;;;5054827;28;20096;-74
2021/09/15 02:48:10;;;;;;;10.27;6.15;;;19.20;98.40;;;;;;5052626;28;20116;-74
2021/09/15 02:50:36;;;;;;;10.18;5.78;;;19.20;98.40;;;;;;5054961;28;20025;-74
2021/09/15 02:53:02;;;;;;;8.15;5.93;;;19.20;98.30;;;;;;5052859;28;20052;-74
2021/09/15 02:55:27;;;;;;;8.48;5.82;;;19.20;98.30;;;;;;5053463;28;20055;-74
2021/09/15 02:57:54;;;;;;;10.23;6.05;;;19.20;98.30;;;;;;5053772;28;20033;-75
2021/09/15 03:00:19;;;;;;;11.38;6.97;;;19.20;98.30;;;;;;5054791;28;20071;-74
2021/09/15 03:02:45;;;;;;;10.98;6.55;;;19.20;98.30;;;;;;5053291;28;20021;-74
2021/09/15 03:05:11;;;;;;;11.07;6.95;;;19.20;98.30;;;;;;5052596;28;20356;-74
2021/09/15 03:07:37;;;;;;;10.88;6.90;;;19.20;98.30;;;;;;5052790;28;20424;-74
2021/09/15 03:10:07;;;;;;;12.35;7.07;;;19.30;98.30;;;;;;5052478;28;20021;-74
2021/09/15 03:12:32;;;;;;;11.52;6.82;;;19.30;98.30;;;;;;5052179;28;20036;-74
2021/09/15 03:14:58;;;;;;;11.82;6.80;;;19.30;98.30;;;;;;5053764;28;20021;-75
2021/09/15 03:17:24;;;;;;;10.18;6.28;;;19.30;98.30;;;;;;5052938;28;20025;-74
2021/09/15 03:19:49;;;;;;;10.77;6.20;;;19.30;98.30;;;;;;5054324;28;20029;-74
2021/09/15 03:22:15;;;;;;;11.23;6.55;;;19.30;98.30;;;;;;5053878;28;20029;-74
2021/09/15 03:24:41;;;;;;;13.88;6.22;;;19.30;98.30;;;;;;5054117;28;20025;-74
2021/09/15 03:27:07;;;;;;;10.40;6.55;;;19.30;98.30;;;;;;5053030;28;20041;-74
2021/09/15 03:29:34;;;;;;;11.40;6.60;;;19.30;98.30;;;;;;5054001;28;20029;-74
2021/09/15 03:32:00;;;;;;;11.27;7.00;;;19.30;98.30;;;;;;5052123;28;20036;-74
2021/09/15 03:34:26;;;;;;;9.30;6.40;;;19.30;98.30;;;;;;5054004;28;20021;-74
2021/09/15 03:36:52;;;;;;;11.10;6.13;;;19.30;98.30;;;;;;5053635;28;20102;-73
2021/09/15 03:39:18;;;;;;;9.45;5.90;;;19.30;98.20;;;;;;5053291;28;20024;-73
2021/09/15 03:41:44;;;;;;;10.55;6.13;;;19.40;98.30;;;;;;5052567;28;20051;-74
2021/09/15 03:44:09;;;;;;;10.75;6.25;;;19.40;98.20;;;;;;5053258;28;20080;-75
2021/09/15 03:46:35;;;;;;;10.90;6.38;;;19.40;98.30;;;;;;5052549;28;20032;-75
2021/09/15 03:49:01;;;;;;;9.93;6.50;;;19.40;98.30;;;;;;5051783;28;20461;-75
2021/09/15 03:51:27;;;;;;;10.85;6.40;;;19.40;98.20;;;;;;5052413;28;20020;-74
2021/09/15 03:53:53;;;;;;;10.18;6.50;;;19.40;98.20;;;;;;5052379;28;20522;-73
2021/09/15 03:56:18;;;;;;;9.80;7.03;;;19.40;98.20;;;;;;5053228;28;20060;-73
2021/09/15 03:58:44;;;;;;;11.55;6.68;;;19.40;98.30;;;;;;5052169;28;20025;-74
2021/09/15 04:01:10;;;;;;;10.45;6.90;;;19.40;98.30;;;;;;5051589;28;20078;-73
2021/09/15 04:03:37;;;;;;;11.27;6.45;;;19.30;98.30;;;;;;5053471;28;20021;-74
2021/09/15 04:06:03;;;;;;;13.27;6.93;;;19.30;98.30;;;;;;5052792;28;20072;-73
2021/09/15 04:08:29;;;;;;;9.70;6.55;;;19.30;98.30;;;;;;5051555;28;20036;-74
2021/09/15 04:10:54;;;;;;;9.43;6.22;;;19.30;98.30;;;;;;5051457;28;20021;-74
2021/09/15 04:13:20;;;;;;;10.27;6.35;;;19.30;98.30;;;;;;5055459;28;20085;-74
2021/09/15 04:15:46;;;;;;;13.02;7.05;;;19.30;98.30;;;;;;5071579;28;20088;-74
2021/09/15 04:18:13;;;;;;;11.30;6.95;;;19.30;98.30;;;;;;5071809;28;20059;-75
2021/09/15 04:20:40;;;;;;;10.93;7.07;;;19.30;98.30;;;;;;5070832;28;20028;-75
2021/09/15 04:23:18;;;;;;;15.07;8.15;;;19.30;98.30;;;;;;5069238;28;20047;-75
2021/09/15 04:31:33;;;;;;;13.48;8.25;;;19.30;98.30;;;;;;5071698;28;20056;-74
2021/09/15 04:34:01;;;;;;;12.98;7.70;;;19.30;98.30;;;;;;5071703;28;20067;-74
2021/09/15 04:36:28;;;;;;;10.45;6.88;;;19.30;98.30;;;;;;5070355;28;20085;-74
2021/09/15 04:38:53;;;;;;;13.15;7.13;;;19.30;98.30;;;;;;5071761;28;20021;-74
2021/09/15 04:41:19;;;;;;;14.95;7.32;;;19.30;98.30;;;;;;5071514;28;20448;-75
2021/09/15 04:43:45;;;;;;;13.63;8.15;;;19.30;98.30;;;;;;5070983;28;20039;-75
2021/09/15 04:46:11;;;;;;;13.02;7.80;;;19.30;98.30;;;;;;5072027;28;20032;-75
2021/09/15 04:48:40;;;;;;;11.27;6.97;;;19.40;98.30;;;;;;5072042;28;20037;-75
2021/09/15 04:51:06;;;;;;;11.35;7.28;;;19.40;98.30;;;;;;5070900;28;20572;-75
2021/09/15 04:53:32;;;;;;;12.30;7.57;;;19.30;98.30;;;;;;5070858;28;20104;-75
2021/09/15 04:55:58;;;;;;;9.95;6.68;;;19.30;98.30;;;;;;5072097;28;20437;-74
2021/09/15 04:58:25;;;;;;;11.45;7.65;;;19.40;98.40;;;;;;5072023;28;20082;-75
2021/09/15 05:00:50;;;;;;;11.00;6.97;;;19.30;98.30;;;;;;5070779;28;20031;-75
2021/09/15 05:03:16;;;;;;;13.32;7.38;;;19.30;98.30;;;;;;5071318;28;20024;-73
2021/09/15 05:05:42;;;;;;;13.57;7.25;;;19.30;98.30;;;;;;5071234;28;20025;-72
2021/09/15 05:08:07;;;;;;;10.68;6.88;;;19.30;98.40;;;;;;5070154;28;20059;-72
2021/09/15 05:10:33;;;;;;;12.52;6.93;;;19.30;98.40;;;;;;5067697;28;20020;-75
2021/09/15 05:12:59;;;;;;;11.27;7.22;;;19.30;98.30;;;;;;5069912;28;20032;-75
2021/09/15 05:15:26;;;;;;;10.90;7.00;;;19.30;98.30;;;;;;5069214;28;20016;-76
2021/09/15 05:17:52;;;;;;;11.90;6.90;;;19.30;98.30;;;;;;5069881;28;20024;-74
2021/09/15 05:20:19;;;;;;;13.13;7.45;;;19.40;98.40;;;;;;5069040;28;20013;-75
2021/09/15 05:22:46;;;;;;;9.15;6.00;;;19.30;98.30;;;;;;5069601;28;20074;-75
2021/09/15 05:25:14;;;;;;;10.50;6.25;;;19.40;98.40;;;;;;5069153;28;20024;-75
2021/09/15 05:27:40;;;;;;;11.63;7.22;;;19.30;98.30;;;;;;5069479;28;20040;-75
2021/09/15 05:30:06;;;;;;;14.07;7.20;;;19.40;98.40;;;;;;5068739;28;20017;-76
2021/09/15 05:32:32;;;;;;;11.48;8.02;;;19.30;98.40;;;;;;5069457;28;20126;-75
2021/09/15 05:34:58;;;;;;;11.98;7.38;;;19.30;98.40;;;;;;5067625;28;20445;-76
2021/09/15 05:37:23;;;;;;;13.77;6.95;;;19.40;98.40;;;;;;5068804;28;20384;-74
2021/09/15 05:39:49;;;;;;;10.35;6.50;;;19.40;98.40;;;;;;5067576;28;20016;-74
2021/09/15 05:42:15;;;;;;;11.40;7.28;;;19.30;98.30;;;;;;5069533;28;20033;-74
2021/09/15 05:44:40;;;;;;;10.63;6.60;;;19.30;98.30;;;;;;5071061;28;20024;-74
2021/09/15 05:47:06;;;;;;;12.82;6.57;;;19.30;98.40;;;;;;5071022;28;20449;-76
2021/09/15 05:49:32;;;;;;;14.70;7.00;;;19.40;98.40;;;;;;5071666;28;20105;-74
2021/09/15 05:51:57;;;;;;;14.25;6.95;;;19.30;98.40;;;;;;5071664;28;20021;-74
2021/09/15 05:54:23;;;;;;;14.45;7.10;;;19.20;98.40;;;;;;5071081;28;20448;-74
2021/09/15 05:56:48;;;;;;;15.77;8.15;;;19.20;98.50;;;;;;5071722;28;20020;-74
2021/09/15 05:59:14;;;;;;;15.07;7.97;;;19.10;98.60;;;;;;5070758;28;20405;-74
2021/09/15 06:01:40;;;;;;;12.88;7.65;;;19.10;98.70;;;;;;5071616;28;20456;-74
2021/09/15 06:04:05;;;;;;;14.15;8.90;;;19.00;98.80;;;;;;5069701;28;20024;-74
2021/09/15 06:06:31;;;;;;;13.85;7.75;;;19.00;98.80;;;;;;5071627;28;20029;-73
2021/09/15 06:08:57;;;;;;;14.98;8.10;;;19.00;98.90;;;;;;5070187;28;20040;-73
2021/09/15 06:11:22;;;;;;;13.38;7.05;;;19.00;98.90;;;;;;5069673;28;20036;-73
2021/09/15 06:13:49;;;;;;;15.95;8.75;;;18.90;99.00;;;;;;5070263;28;20108;-74
2021/09/15 06:16:16;;;;;;;23.55;8.75;;;18.90;99.10;;;;;;5069606;28;20055;-74
2021/09/15 06:18:42;;;;;;;18.88;8.48;;;18.90;99.20;;;;;;5071791;28;20107;-73
2021/09/15 06:21:07;;;;;;;17.02;8.75;;;18.90;99.20;;;;;;5070814;28;20490;-74
2021/09/15 06:23:34;;;;;;;18.00;8.15;;;18.90;99.30;;;;;;5071192;28;20100;-74
2021/09/15 06:26:00;;;;;;;18.33;8.13;;;18.80;99.30;;;;;;5071429;28;20071;-74
2021/09/15 06:28:29;;;;;;;17.92;8.73;;;18.90;99.40;;;;;;5068987;28;20045;-74
2021/09/15 06:30:54;;;;;;;17.33;8.90;;;18.80;99.50;;;;;;5071314;28;20025;-74
2021/09/15 06:33:20;;;;;;;29.10;9.73;;;18.90;99.50;;;;;;5070750;28;20032;-74
2021/09/15 06:35:47;;;;;;;18.80;8.50;;;18.90;99.50;;;;;;5071502;28;20082;-73
2021/09/15 06:38:13;;;;;;;20.35;9.32;;;18.90;99.50;;;;;;5069354;28;20029;-74
2021/09/15 06:40:39;;;;;;;19.98;8.73;;;18.90;99.50;;;;;;5069861;28;20046;-74
2021/09/15 06:43:05;;;;;;;25.38;9.38;;;18.90;99.50;;;;;;5069918;28;20068;-74
2021/09/15 06:45:31;;;;;;;27.55;9.30;;;19.00;99.60;;;;;;5070273;28;20025;-74
2021/09/15 06:47:57;;;;;;;21.42;9.55;;;19.00;99.70;;;;;;5074160;28;20106;-74
2021/09/15 06:50:22;;;;;;;17.95;9.38;;;19.00;99.70;;;;;;5072948;28;20093;-74
2021/09/15 06:52:48;;;;;;;24.83;9.68;;;19.00;99.80;;;;;;5074720;28;20478;-74
2021/09/15 06:55:14;;;;;;;19.63;9.23;;;19.00;99.90;;;;;;5073958;28;20526;-74
2021/09/15 06:57:39;;;;;;;24.73;9.65;;;19.00;99.90;;;;;;5074743;28;20384;-74
2021/09/15 07:00:07;;;;;;;22.35;10.30;;;19.00;99.90;;;;;;5074542;28;20103;-73
2021/09/15 07:02:33;;;;;;;25.90;9.73;;;19.00;99.90;;;;;;5074388;28;20031;-73
2021/09/15 07:04:59;;;;;;;23.88;10.45;;;19.00;99.90;;;;;;5073195;28;20031;-73
2021/09/15 07:07:25;;;;;;;22.77;10.23;;;19.00;99.90;;;;;;5073843;28;20036;-73
2021/09/15 07:09:51;;;;;;;20.35;9.48;;;19.10;99.90;;;;;;5074384;28;20027;-73
2021/09/15 07:12:16;;;;;;;23.63;10.45;;;19.00;99.90;;;;;;5073934;28;20032;-73
2021/09/15 07:14:42;;;;;;;31.40;11.38;;;19.00;99.90;;;;;;5072945;28;20060;-74
2021/09/15 07:17:08;;;;;;;27.83;11.60;;;19.00;99.90;;;;;;5074404;28;20099;-73
2021/09/15 07:19:34;;;;;;;32.03;11.68;;;19.10;99.90;;;;;;5073497;28;20036;-73
2021/09/15 07:21:59;;;;;;;23.70;10.63;;;19.10;99.90;;;;;;5073024;28;20526;-73
2021/09/15 07:24:25;;;;;;;23.85;11.45;;;19.10;99.90;;;;;;5073304;28;20025;-73
2021/09/15 07:26:52;;;;;;;29.83;11.68;;;19.10;99.90;;;;;;5072789;28;20048;-73
2021/09/15 07:29:17;;;;;;;33.53;11.88;;;19.10;99.90;;;;;;5073508;28;20074;-73
2021/09/15 07:31:43;;;;;;;34.20;11.00;;;19.10;99.90;;;;;;5074170;28;20063;-73
2021/09/15 07:34:09;;;;;;;27.13;11.43;;;19.20;99.90;;;;;;5072791;28;20091;-73
2021/09/15 07:36:35;;;;;;;34.70;12.32;;;19.20;99.90;;;;;;5073803;28;20025;-73
2021/09/15 07:39:03;;;;;;;24.55;10.90;;;19.20;99.90;;;;;;5073613;28;20138;-73
2021/09/15 07:41:28;;;;;;;31.55;12.18;;;19.20;99.90;;;;;;5071907;28;20025;-73
2021/09/15 07:43:54;;;;;;;21.52;11.30;;;19.20;99.90;;;;;;5074147;28;20035;-73
2021/09/15 07:46:21;;;;;;;25.80;12.00;;;19.20;99.90;;;;;;5073110;28;20025;-73
2021/09/15 07:48:51;;;;;;;23.52;10.57;;;19.20;99.90;;;;;;5073599;28;20023;-73
2021/09/15 07:51:17;;;;;;;25.08;10.50;;;19.20;99.90;;;;;;5071455;28;20031;-73
2021/09/15 07:53:43;;;;;;;25.85;10.75;;;19.30;99.90;;;;;;5073219;28;20385;-73
2021/09/15 07:56:09;;;;;;;29.42;11.35;;;19.20;99.90;;;;;;5072310;28;20051;-73
2021/09/15 07:58:35;;;;;;;26.83;11.70;;;19.20;99.90;;;;;;5071179;28;20052;-73
2021/09/15 08:01:00;;;;;;;40.25;11.80;;;19.20;99.90;;;;;;5072053;28;20020;-73
2021/09/15 08:03:26;;;;;;;25.60;11.48;;;19.20;99.90;;;;;;5072846;28;20029;-73
2021/09/15 08:05:54;;;;;;;32.67;11.65;;;19.20;99.90;;;;;;5071975;28;20075;-73
2021/09/15 08:08:20;;;;;;;34.28;12.63;;;19.20;99.90;;;;;;5072623;28;20020;-73
2021/09/15 08:10:46;;;;;;;31.90;12.35;;;19.20;99.90;;;;;;5071872;28;20048;-73
2021/09/15 08:13:12;;;;;;;30.00;11.27;;;19.20;99.90;;;;;;5072988;28;20020;-73
2021/09/15 08:15:37;;;;;;;31.50;12.02;;;19.30;99.90;;;;;;5072557;28;20055;-73
2021/09/15 08:18:03;;;;;;;21.77;10.75;;;19.20;99.90;;;;;;5071787;28;20020;-73
2021/09/15 08:20:29;;;;;;;27.90;11.10;;;19.30;99.90;;;;;;5072656;28;20098;-73
2021/09/15 08:22:55;;;;;;;30.50;12.55;;;19.20;99.90;;;;;;5071421;28;20112;-73
2021/09/15 08:25:22;;;;;;;38.10;13.75;;;19.30;99.90;;;;;;5071043;28;20472;-73
2021/09/15 08:27:48;;;;;;;35.00;12.93;;;19.30;99.90;;;;;;5072422;28;20401;-73
2021/09/15 08:30:15;;;;;;;37.75;13.27;;;19.30;99.90;;;;;;5072934;28;20039;-75
2021/09/15 08:32:40;;;;;;;34.33;13.02;;;19.40;99.90;;;;;;5071322;28;20043;-73
2021/09/15 08:35:07;;;;;;;34.38;13.07;;;19.40;99.90;;;;;;5071475;28;20017;-73
2021/09/15 08:37:34;;;;;;;36.20;14.32;;;19.50;99.90;;;;;;5072000;28;20028;-73
2021/09/15 08:39:59;;;;;;;38.45;13.48;;;19.50;99.90;;;;;;5071399;28;20032;-74
2021/09/15 08:42:25;;;;;;;38.15;13.68;;;19.50;99.90;;;;;;5072044;28;20429;-74
2021/09/15 08:44:51;;;;;;;36.72;13.15;;;19.60;99.90;;;;;;5071464;28;20472;-74
2021/09/15 08:47:19;;;;;;;34.30;13.60;;;19.60;99.90;;;;;;5071897;28;20036;-75
2021/09/15 08:49:46;;;;;;;38.58;15.30;;;19.60;99.90;;;;;;5072430;28;20020;-74
2021/09/15 08:52:12;;;;;;;42.25;15.13;;;19.60;99.90;;;;;;5072274;28;20103;-74
2021/09/15 08:54:38;;;;;;;44.15;14.88;;;19.60;99.90;;;;;;5071826;28;20155;-74
2021/09/15 08:57:03;;;;;;;45.28;15.15;;;19.70;99.90;;;;;;5072065;28;20444;-73
2021/09/15 08:59:29;;;;;;;47.92;16.45;;;19.60;99.90;;;;;;5071787;28;20029;-74
2021/09/15 09:02:06;;;;;;;49.92;17.38;;;19.70;99.90;;;;;;5087747;28;20506;-72
2021/09/15 09:04:49;;;;;;;48.83;15.63;;;19.70;99.90;;;;;;5070478;28;20125;-75
2021/09/15 09:07:14;;;;;;;55.05;17.73;;;19.80;99.90;;;;;;5070896;28;20101;-75
2021/09/15 09:09:52;;;;;;;61.70;18.30;;;19.80;99.90;;;;;;5070979;28;20464;-75
2021/09/15 09:12:20;;;;;;;47.58;16.20;;;19.80;99.90;;;;;;5071651;28;20082;-76
2021/09/15 09:14:46;;;;;;;53.63;17.17;;;19.90;99.90;;;;;;5070906;28;20421;-75
2021/09/15 09:17:26;;;;;;;45.55;15.85;;;19.90;99.90;;;;;;5072042;28;20104;-72
2021/09/15 09:20:31;;;;;;;58.00;19.85;;;20.00;99.90;;;;;;5071998;28;20456;-74
2021/09/15 09:23:00;;;;;;;56.33;19.42;;;20.00;99.90;;;;;;5069794;28;20033;-73
2021/09/15 09:25:27;;;;;;;52.80;18.00;;;20.10;99.90;;;;;;5069781;28;20024;-74
2021/09/15 09:27:54;;;;;;;65.95;21.48;;;20.20;99.90;;;;;;5072288;28;20492;-74
2021/09/15 09:30:29;;;;;;;70.18;20.88;;;20.20;99.90;;;;;;5071301;28;20045;-74
2021/09/15 09:32:56;;;;;;;63.72;20.92;;;20.30;99.90;;;;;;5070611;28;20115;-73
2021/09/15 09:35:22;;;;;;;66.25;20.55;;;20.30;99.90;;;;;;5071063;28;20025;-74
2021/09/15 09:37:47;;;;;;;74.15;22.13;;;20.30;99.90;;;;;;5071606;28;20028;-73
2021/09/15 09:40:19;;;;;;;82.90;21.27;;;20.30;99.90;;;;;;5071774;28;20079;-74
2021/09/15 09:42:44;;;;;;;80.38;21.83;;;20.30;99.90;;;;;;5071875;28;20019;-75
2021/09/15 09:45:16;;;;;;;59.70;18.10;;;20.40;99.90;;;;;;5071566;28;20095;-74
2021/09/15 09:47:44;;;;;;;68.68;19.05;;;20.40;99.90;;;;;;5070140;28;20313;-74
2021/09/15 09:50:18;;;;;;;76.18;20.52;;;20.40;99.90;;;;;;5071829;28;20016;-74
2021/09/15 09:53:01;;;;;;;68.00;20.27;;;20.30;99.90;;;;;;5069709;28;20032;-74
2021/09/15 09:55:34;;;;;;;83.30;23.10;;;20.30;99.90;;;;;;5071208;28;20020;-73
2021/09/15 09:58:02;;;;;;;77.55;20.95;;;20.20;99.90;;;;;;5070475;28;20039;-74
2021/09/15 10:00:28;;;;;;;73.53;20.08;;;20.30;99.90;;;;;;5071113;28;20104;-75
2021/09/15 10:02:54;;;;;;;79.68;24.05;;;20.30;99.90;;;;;;5071380;28;20103;-75
2021/09/15 10:05:21;;;;;;;83.20;22.88;;;20.20;99.90;;;;;;5071610;28;20027;-75
2021/09/15 10:07:48;;;;;;;71.63;19.63;;;20.30;99.90;;;;;;5071327;28;20040;-75
2021/09/15 10:10:16;;;;;;;86.75;24.15;;;20.40;99.90;;;;;;5070110;28;20036;-74
2021/09/15 10:12:43;;;;;;;85.55;22.98;;;20.40;99.90;;;;;;5071322;28;20107;-75
2021/09/15 10:15:10;;;;;;;99.55;24.95;;;20.40;99.90;;;;;;5071649;28;20046;-75
2021/09/15 10:17:40;;;;;;;86.53;23.88;;;20.40;99.90;;;;;;5069504;28;20380;-75
2021/09/15 10:20:08;;;;;;;111.38;26.35;;;20.50;99.90;;;;;;5071592;28;20035;-75
2021/09/15 10:22:37;;;;;;;98.78;28.13;;;20.40;99.90;;;;;;5074705;28;20371;-75
2021/09/15 10:25:08;;;;;;;104.60;29.48;;;20.40;99.90;;;;;;5073996;28;20020;-75
2021/09/15 10:27:58;;;;;;;106.88;28.00;;;20.50;99.90;;;;;;5089583;28;20048;-75
2021/09/15 10:30:42;;;;;;;98.00;28.55;;;20.50;99.90;;;;;;5074598;28;20089;-76
2021/09/15 10:33:27;;;;;;;87.70;23.10;;;20.60;99.90;;;;;;5074044;28;20490;-75
2021/09/15 10:35:53;;;;;;;89.22;24.10;;;20.70;99.90;;;;;;5073578;28;20511;-74
2021/09/15 10:38:59;;;;;;;101.72;28.05;;;20.70;99.90;;;;;;5075336;28;20032;-75
2021/09/15 10:41:30;;;;;;;123.82;28.65;;;20.60;99.90;;;;;;5074235;28;20121;-76
2021/09/15 10:44:07;;;;;;;108.13;29.17;;;20.60;99.90;;;;;;5075099;28;20028;-75
2021/09/15 10:46:33;;;;;;;73.55;21.67;;;20.60;99.90;;;;;;5072982;28;20019;-74
2021/09/15 10:49:24;;;;;;;112.47;31.42;;;20.50;99.90;;;;;;5074941;28;20036;-74
2021/09/15 10:52:08;;;;;;;103.57;26.90;;;20.40;99.90;;;;;;5073552;28;20167;-74
2021/09/15 10:54:51;;;;;;;95.38;23.65;;;20.30;99.90;;;;;;5072730;28;20032;-74
2021/09/15 10:57:27;;;;;;;71.75;20.65;;;20.30;99.90;;;;;;5074738;28;20029;-74
2021/09/15 11:00:00;;;;;;;95.90;24.95;;;20.30;99.90;;;;;;5074675;28;20060;-74
2021/09/15 11:02:36;;;;;;;98.82;24.25;;;20.30;99.90;;;;;;5072567;28;20071;-75
2021/09/15 11:05:26;;;;;;;103.63;25.08;;;20.40;99.90;;;;;;5074580;28;20027;-75
2021/09/15 11:07:57;;;;;;;99.88;25.98;;;20.60;99.90;;;;;;5074434;28;20108;-76
2021/09/15 11:10:32;;;;;;;99.22;24.10;;;20.70;99.90;;;;;;5073384;28;20054;-75
2021/09/15 11:13:11;;;;;;;91.30;24.95;;;20.70;99.90;;;;;;5073235;28;20531;-74
2021/09/15 11:15:45;;;;;;;100.57;26.20;;;20.80;99.90;;;;;;5072302;28;20116;-76
2021/09/15 11:18:22;;;;;;;88.22;23.67;;;20.90;99.90;;;;;;5074670;28;20078;-75
2021/09/15 11:20:54;;;;;;;93.15;26.60;;;21.00;99.90;;;;;;5073645;28;20405;-76
2021/09/15 11:23:20;;;;;;;78.50;22.05;;;21.00;99.90;;;;;;5074272;28;20024;-76
2021/09/15 11:25:49;;;;;;;75.95;20.85;;;21.10;99.90;;;;;;5073619;28;20121;-75
2021/09/15 11:28:17;;;;;;;68.32;19.83;;;21.10;99.90;;;;;;5074244;28;20040;-74
2021/09/15 11:30:49;;;;;;;77.80;21.20;;;21.10;99.90;;;;;;5073520;28;20082;-76
2021/09/15 11:33:15;;;;;;;65.35;19.25;;;21.10;99.90;;;;;;5071964;28;20027;-76
2021/09/15 11:35:40;;;;;;;75.70;21.08;;;21.10;99.90;;;;;;5073716;28;20024;-76
2021/09/15 11:38:08;;;;;;;74.47;23.60;;;21.10;99.90;;;;;;5074058;28;20024;-76
2021/09/15 11:40:35;;;;;;;70.38;23.38;;;21.10;99.90;;;;;;5073317;28;20475;-74
2021/09/15 11:43:06;;;;;;;67.90;22.90;;;21.10;99.90;;;;;;5073489;28;20021;-74
2021/09/15 11:45:32;;;;;;;;;;;21.10;99.90;;;;;;5073693;28;20048;-77
2021/09/15 11:47:58;;;;;;;78.55;24.10;;;21.10;99.90;;;;;;5072106;28;19916;-75
2021/09/15 11:50:32;;;;;;;62.17;21.63;;;21.10;99.90;;;;;;5073815;28;20093;-76
2021/09/15 11:53:09;;;;;;;56.90;22.70;;;21.20;99.90;;;;;;5089348;28;20107;-76
2021/09/15 11:55:41;;;;;;;68.20;24.70;;;21.20;99.80;;;;;;5071667;28;20016;-74
2021/09/15 11:58:07;;;;;;;55.28;21.13;;;21.20;99.80;;;;;;5072254;28;20028;-76
2021/09/15 12:00:34;;;;;;;56.10;20.55;;;21.10;99.80;;;;;;5073470;28;20388;-75
2021/09/15 12:03:04;;;;;;;65.63;25.15;;;21.10;99.90;;;;;;5072233;28;20024;-74
2021/09/15 12:05:30;;;;;;;62.53;25.27;;;21.10;99.80;;;;;;5071439;28;20040;-75
2021/09/15 12:07:57;;;;;;;56.33;23.48;;;21.10;99.80;;;;;;5072644;28;20427;-75
2021/09/15 12:10:23;;;;;;;54.55;24.20;;;21.00;99.70;;;;;;5073406;28;20099;-75
2021/09/15 12:12:50;;;;;;;53.85;24.65;;;20.90;99.80;;;;;;5072706;28;20104;-75
2021/09/15 12:15:16;;;;;;;54.42;22.80;;;20.90;99.80;;;;;;5073183;28;20028;-75
2021/09/15 12:17:53;;;;;;;46.20;20.88;;;20.80;99.90;;;;;;5072549;28;20025;-75
2021/09/15 12:20:43;;;;;;;44.70;22.52;;;20.70;99.90;;;;;;5071856;28;20453;-75
2021/09/15 12:23:10;;;;;;;44.78;20.58;;;20.70;99.90;;;;;;5073259;28;20074;-75
2021/09/15 12:25:37;;;;;;;35.90;16.73;;;20.70;99.80;;;;;;5070933;28;20070;-75
2021/09/15 12:28:03;;;;;;;28.60;15.07;;;20.80;99.80;;;;;;5072445;28;20040;-73
2021/09/15 12:30:29;;;;;;;32.15;15.15;;;20.70;99.70;;;;;;5072900;28;20100;-73
2021/09/15 12:32:57;;;;;;;25.85;12.52;;;20.70;99.70;;;;;;5072128;28;20056;-75
2021/09/15 12:35:25;;;;;;;25.95;12.05;;;20.80;99.60;;;;;;5072568;28;20020;-74
2021/09/15 12:38:11;;;;;;;20.05;10.65;;;20.80;99.50;;;;;;5070744;28;20248;-75
2021/09/15 12:40:36;;;;;;;21.35;10.40;;;21.00;99.30;;;;;;5070794;28;20071;-75